Detall de PIREP

Printer-friendly versionPDF version

[2012/07/21 14:02:00]
Flight IATA:CT1005
Pilot Number:037
Company ICAO:CAT
Aircraft Type:B752/E
PAX:180
Aircraft Registration:PAX
Departing Airport: LFPO
Destination Airport: LPPR
Alternate Airport:LPPT
Online: VATSIM
Route:LGL UT176 TERPO UN872 VES UT7 ASPOR

Flight Level:F370
No Slew and time accel
No pause
Crash detect
Detect pilot in Cockpit between each 30 and 45 minutes
14:02 Zero fuel Weight: 183060 Lbs, Fuel Weight: 27612 Lbs
14:02 VATSIM:LFPO 211330Z 32009KT 280V020 CAVOK 22/09 Q1022 NOSIG
14:02 VATSIM:LPPR 211330Z 31007KT 270V340 CAVOK 22/15 Q1020
14:10 Parking Brakes off
14:15 Take-off
14:15 Take off Weight: 209852 Lbs
14:15 Wind: 348º @ 007 Knots Heading: 243º
14:15 POS N48º 43´ 38´´ E002º 20´ 15´´
14:15 Gear Up: 193 Knots
14:15 Flaps:2 at 193 Knots
14:15 Flaps:1 at 210 Knots
14:15 Flaps:0 at 209 Knots
14:30 Wind:347º@026 Knots Heading: 233º GroundSpeed: 482 Knots Altitude 33064 ft
14:33 TOC
14:33 Fuel Weight: 22098 Lb
14:45 Wind:290º@027 Knots Heading: 216º Ground Speed: 474 Knots Altitude 37322 ft
15:00 Wind:306º@039 Knots Heading: 214º Ground Speed: 485 Knots Altitude 37303 ft
15:15 Wind:308º@029 Knots Heading: 222º Ground Speed: 473 Knots Altitude 37303 ft
15:30 Wind:338º@022 Knots Heading: 223º Ground Speed: 496 Knots Altitude 37253 ft
15:31 TOD
15:31 Fuel Weight: 13306 Lb
15:45 Wind:329º@018 Knots Heading: 195º Ground Speed: 274 Knots Altitude 5200 ft
15:54 Flaps:1 at 220 Knots
15:55 Flaps:2 at 200 Knots
15:57 Flaps:3 at 163 Knots
16:00 Wind:004º@014 Knots Heading: 183º Ground Speed: 191 Knots Altitude 2650 ft
16:05 Flaps:4 at 159 Knots
16:06 Gear Down: 152 Knots
16:07 Flaps:5 at 149 Knots
16:08 Flaps:6 at 148 Knots
16:08 TouchDown:Rate -288 ft/min Speed: 140 Knots
16:08 VATSIM:LPPR 211530Z 33010KT 300V360 CAVOK 23/15 Q1020
16:08 Land
16:08 Wind:352º@012 Knots
16:08 Heading: 348º
16:08 Flight Duration: 01:53
16:08 Landing Weight: 192734 Lbs
16:08 POS N41º 14´ 40´´ W008º 40´ 49´´
16:11 Parking brakes on
16:11 Block to Block Duration: 02:01
16:11 Final Fuel: 9285 Lbls
16:11 Spent Fuel: 18326 Lbls
16:11 Flight Length: 646 NM
16:11 TOD Land Length: 72 NM

Exportar CSV

Powered by Drupal - Modified by Danger4k